Time;durP1;ratioP1;P1;durP2;ratioP2;P2;SDS_P1;SDS_P2;PMS_P1;PMS_P2;Temp;Humidity;BMP_temperature;BMP_pressure;BME280_temperature;BME280_humidity;BME280_pressure;Samples;Min_cycle;Max_cycle;Signal;HPM_P1;HPM_P2
2023/12/22 00:02:03;;;;;;;13.88;3.53;;;;;;;4.04;100.00;100145.34;5005328;28;20076;-83
2023/12/22 00:04:29;;;;;;;13.23;3.95;;;;;;;4.00;100.00;100137.53;5028450;28;20373;-84
2023/12/22 00:06:54;;;;;;;17.65;4.20;;;;;;;3.94;100.00;100137.78;5014938;28;20088;-84
2023/12/22 00:09:20;;;;;;;19.80;4.50;;;;;;;3.92;100.00;100149.25;5026549;28;20415;-84
2023/12/22 00:11:45;;;;;;;12.15;3.50;;;;;;;3.90;100.00;100145.84;5026823;28;20045;-84
2023/12/22 00:14:11;;;;;;;14.63;4.25;;;;;;;3.80;100.00;100125.97;5028590;28;20035;-84
2023/12/22 00:16:37;;;;;;;14.10;4.13;;;;;;;3.72;100.00;100106.06;5039460;28;20038;-84
2023/12/22 00:19:03;;;;;;;16.15;4.10;;;;;;;3.82;100.00;100132.94;5043176;28;20045;-83
2023/12/22 00:21:28;;;;;;;14.57;3.63;;;;;;;3.88;100.00;100137.97;5045190;28;20032;-84
2023/12/22 00:23:54;;;;;;;14.65;3.65;;;;;;;3.83;100.00;100134.63;5041437;28;20271;-83
2023/12/22 00:26:19;;;;;;;18.58;4.20;;;;;;;3.95;100.00;100155.28;5050453;28;20026;-82
2023/12/22 00:28:45;;;;;;;17.98;4.65;;;;;;;4.00;100.00;100165.66;5036533;28;20049;-82
2023/12/22 00:31:12;;;;;;;17.17;4.05;;;;;;;4.02;100.00;100171.75;5015655;28;20438;-83
2023/12/22 00:33:38;;;;;;;11.07;4.05;;;;;;;4.05;100.00;100176.03;5024680;28;20050;-83
2023/12/22 00:36:03;;;;;;;15.23;3.80;;;;;;;4.01;100.00;100164.72;5018123;28;20375;-83
2023/12/22 00:38:29;;;;;;;14.13;4.53;;;;;;;4.03;100.00;100188.41;5018038;28;20493;-83
2023/12/22 00:40:54;;;;;;;14.95;3.97;;;;;;;4.04;100.00;100195.38;5029276;28;20038;-83
2023/12/22 00:43:19;;;;;;;15.32;4.53;;;;;;;4.07;100.00;100188.25;5029736;28;20092;-84
2023/12/22 00:45:45;;;;;;;17.00;4.88;;;;;;;3.93;100.00;100165.03;5016580;28;20104;-84
2023/12/22 00:48:10;;;;;;;19.70;4.40;;;;;;;3.94;100.00;100150.94;5016194;28;20063;-84
2023/12/22 00:50:35;;;;;;;20.27;5.05;;;;;;;4.09;100.00;100202.19;5003339;28;20041;-83
2023/12/22 00:53:01;;;;;;;21.75;5.35;;;;;;;4.08;100.00;100184.69;5023606;28;20394;-83
2023/12/22 00:55:26;;;;;;;17.90;4.65;;;;;;;3.85;100.00;100147.78;5013933;28;20514;-83
2023/12/22 00:57:51;;;;;;;15.88;4.60;;;;;;;4.05;100.00;100171.59;5024442;28;20037;-83
2023/12/22 01:00:17;;;;;;;24.27;5.50;;;;;;;4.03;100.00;100185.75;5024902;28;20073;-83
2023/12/22 01:02:43;;;;;;;16.15;4.80;;;;;;;3.94;100.00;100169.38;5021640;28;20050;-83
2023/12/22 01:05:08;;;;;;;18.48;4.20;;;;;;;3.96;100.00;100178.06;5025946;28;20481;-84
2023/12/22 01:07:33;;;;;;;20.33;4.40;;;;;;;3.91;100.00;100200.19;5026380;28;20064;-83
2023/12/22 01:10:01;;;;;;;19.48;5.03;;;;;;;3.84;100.00;100190.78;5026674;28;20133;-83
2023/12/22 01:12:28;;;;;;;19.02;5.05;;;;;;;3.88;100.00;100193.25;5035145;28;20037;-83
2023/12/22 01:14:53;;;;;;;19.30;5.30;;;;;;;3.93;100.00;100183.44;5031704;28;20042;-83
2023/12/22 01:17:18;;;;;;;26.77;5.68;;;;;;;3.96;100.00;100175.44;5022409;28;20072;-83
2023/12/22 01:19:45;;;;;;;18.98;4.60;;;;;;;3.97;100.00;100163.13;5020427;28;20041;-83
2023/12/22 01:22:10;;;;;;;16.90;4.28;;;;;;;4.17;100.00;100183.50;5004321;28;20033;-84
2023/12/22 01:24:39;;;;;;;20.20;5.60;;;;;;;3.93;100.00;100129.91;5016749;28;20032;-83
2023/12/22 01:27:04;;;;;;;17.35;4.20;;;;;;;4.26;100.00;100191.06;5013923;28;20068;-83
2023/12/22 01:29:30;;;;;;;16.42;4.20;;;;;;;4.25;100.00;100186.72;5030740;28;20066;-84
2023/12/22 01:31:55;;;;;;;14.35;4.63;;;;;;;4.18;100.00;100185.22;5001071;28;20044;-83
2023/12/22 01:34:22;;;;;;;15.02;3.97;;;;;;;4.16;100.00;100201.06;5026059;28;20054;-84
2023/12/22 01:36:47;;;;;;;18.13;4.80;;;;;;;4.39;100.00;100213.47;5027487;28;20441;-83
2023/12/22 01:39:12;;;;;;;16.92;4.53;;;;;;;4.34;100.00;100198.72;5003115;28;20064;-84
2023/12/22 01:41:38;;;;;;;17.52;4.75;;;;;;;4.34;100.00;100212.72;5026015;28;20421;-83
2023/12/22 01:44:03;;;;;;;18.90;5.03;;;;;;;4.37;100.00;100219.69;5028693;28;20120;-83
2023/12/22 01:46:29;;;;;;;17.38;4.95;;;;;;;4.28;100.00;100193.66;5023921;28;20029;-83
2023/12/22 01:48:55;;;;;;;18.55;4.35;;;;;;;4.36;100.00;100212.69;5027704;28;20048;-84
2023/12/22 01:51:20;;;;;;;15.48;4.07;;;;;;;4.22;100.00;100168.38;5031418;28;20038;-83
2023/12/22 01:53:46;;;;;;;19.10;5.35;;;;;;;4.48;100.00;100220.19;5017129;28;20048;-83
2023/12/22 01:56:12;;;;;;;14.98;4.63;;;;;;;4.27;100.00;100194.59;5022484;28;20036;-84
2023/12/22 01:58:37;;;;;;;18.15;4.97;;;;;;;4.54;100.00;100216.44;5025884;28;20034;-83
2023/12/22 02:01:04;;;;;;;17.85;4.75;;;;;;;4.55;100.00;100233.97;5031080;28;20037;-83
2023/12/22 02:03:30;;;;;;;18.58;4.47;;;;;;;4.38;100.00;100222.25;5009901;28;20030;-83
2023/12/22 02:05:56;;;;;;;15.35;4.10;;;;;;;4.42;100.00;100229.13;5031585;28;20391;-83
2023/12/22 02:08:24;;;;;;;19.20;4.82;;;;;;;4.53;100.00;100227.91;5024559;28;20049;-83
2023/12/22 02:10:50;;;;;;;15.70;4.28;;;;;;;4.55;100.00;100218.16;5033464;28;20127;-83
2023/12/22 02:13:15;;;;;;;11.77;3.95;;;;;;;4.66;100.00;100223.91;5039976;28;20040;-83
2023/12/22 02:15:41;;;;;;;15.82;4.00;;;;;;;4.53;100.00;100210.31;5026034;28;20549;-83
2023/12/22 02:18:06;;;;;;;23.38;5.18;;;;;;;4.60;100.00;100232.03;5011650;28;20396;-83
2023/12/22 02:20:32;;;;;;;18.02;4.65;;;;;;;4.47;100.00;100215.78;5000342;28;20558;-83
2023/12/22 02:22:58;;;;;;;18.65;4.88;;;;;;;4.44;100.00;100211.50;5023773;28;20113;-84
2023/12/22 02:25:23;;;;;;;15.70;4.47;;;;;;;4.29;100.00;100222.59;5028640;28;20541;-84
2023/12/22 02:28:10;;;;;;;15.93;4.68;;;;;;;4.32;100.00;100204.03;5028184;28;20025;-83
2023/12/22 02:30:57;;;;;;;16.85;4.45;;;;;;;4.41;100.00;100221.31;5022589;28;20044;-85
2023/12/22 02:33:24;;;;;;;19.02;4.88;;;;;;;4.39;100.00;100212.56;5026171;28;20504;-85
2023/12/22 02:35:51;;;;;;;13.20;4.57;;;;;;;4.37;100.00;100204.72;5015264;28;20484;-83
2023/12/22 02:38:17;;;;;;;19.58;5.25;;;;;;;4.45;100.00;100222.91;5025973;28;20037;-84
2023/12/22 02:40:44;;;;;;;14.63;4.20;;;;;;;4.68;100.00;100248.44;5021451;28;20029;-83
2023/12/22 02:43:09;;;;;;;17.60;4.50;;;;;;;4.61;100.00;100213.53;5026667;28;20040;-82
2023/12/22 02:45:35;;;;;;;13.73;3.95;;;;;;;4.51;100.00;100235.84;5020579;28;20026;-83
2023/12/22 02:48:00;;;;;;;10.38;3.70;;;;;;;4.60;100.00;100287.38;5022501;28;20480;-83
2023/12/22 02:50:25;;;;;;;16.45;4.28;;;;;;;4.35;100.00;100251.38;5027335;28;20037;-84
2023/12/22 02:52:51;;;;;;;13.43;3.63;;;;;;;4.21;100.00;100245.69;5015941;28;20515;-83
2023/12/22 02:55:17;;;;;;;18.92;4.38;;;;;;;4.23;100.00;100276.34;5024814;28;20095;-83
2023/12/22 02:57:43;;;;;;;19.60;4.35;;;;;;;4.19;100.00;100258.94;5028179;28;20049;-84
2023/12/22 03:00:09;;;;;;;13.32;4.10;;;;;;;4.13;100.00;100250.38;5026027;28;20512;-83
2023/12/22 03:02:34;;;;;;;13.60;3.90;;;;;;;3.97;100.00;100235.09;5028392;28;20029;-84
2023/12/22 03:04:59;;;;;;;14.40;4.43;;;;;;;4.11;100.00;100228.50;5020183;28;20116;-84
2023/12/22 03:07:25;;;;;;;15.23;4.45;;;;;;;3.96;100.00;100228.09;5021592;28;20053;-84
2023/12/22 03:09:51;;;;;;;15.20;4.20;;;;;;;3.84;100.00;100204.78;5008049;28;20320;-84
2023/12/22 03:12:16;;;;;;;17.95;4.70;;;;;;;3.87;100.00;100209.97;5025110;28;20045;-84
2023/12/22 03:14:41;;;;;;;12.60;4.55;;;;;;;4.03;100.00;100214.72;5011059;28;20147;-84
2023/12/22 03:17:07;;;;;;;17.60;4.47;;;;;;;4.00;100.00;100213.91;5025987;28;20037;-84
2023/12/22 03:19:33;;;;;;;18.15;5.88;;;;;;;4.04;100.00;100193.59;5018406;28;20029;-84
2023/12/22 03:21:59;;;;;;;20.10;4.88;;;;;;;4.13;100.00;100195.06;5031559;28;20052;-83
2023/12/22 03:24:26;;;;;;;19.50;4.80;;;;;;;4.08;100.00;100187.31;5020501;28;20440;-83
2023/12/22 03:26:52;;;;;;;19.40;5.10;;;;;;;4.21;100.00;100196.50;4996719;28;20084;-83
2023/12/22 03:29:18;;;;;;;20.95;5.15;;;;;;;4.21;100.00;100193.88;5023777;28;20115;-84
2023/12/22 03:31:44;;;;;;;20.52;4.80;;;;;;;4.21;100.00;100204.41;5017072;28;20114;-84
2023/12/22 03:34:10;;;;;;;18.55;4.93;;;;;;;4.29;100.00;100208.56;5007484;28;20812;-84
2023/12/22 03:36:35;;;;;;;15.45;4.63;;;;;;;4.30;100.00;100202.38;5002864;28;20444;-84
2023/12/22 03:39:01;;;;;;;14.40;4.85;;;;;;;4.40;100.00;100195.88;5007639;28;20049;-85
2023/12/22 03:41:26;;;;;;;20.00;5.18;;;;;;;4.23;100.00;100176.25;5008863;28;20030;-85
2023/12/22 03:43:51;;;;;;;14.00;4.10;;;;;;;4.42;100.00;100208.06;4999575;28;20042;-85
2023/12/22 03:46:17;;;;;;;22.45;5.03;;;;;;;4.36;100.00;100186.34;5000986;28;20049;-85
2023/12/22 03:48:42;;;;;;;15.50;4.75;;;;;;;4.47;100.00;100189.44;4985465;28;20058;-85
2023/12/22 03:51:07;;;;;;;22.10;4.93;;;;;;;4.66;100.00;100216.00;4988244;28;20026;-84
2023/12/22 03:53:33;;;;;;;20.75;4.85;;;;;;;4.65;100.00;100188.78;5004725;28;20040;-84
2023/12/22 03:55:58;;;;;;;16.92;4.45;;;;;;;4.83;100.00;100213.59;4992395;28;20034;-83
2023/12/22 03:58:25;;;;;;;12.60;4.32;;;;;;;4.79;100.00;100200.59;5001692;28;20034;-83
2023/12/22 04:00:51;;;;;;;19.63;4.70;;;;;;;5.00;100.00;100205.91;4999327;28;20033;-84
2023/12/22 04:03:16;;;;;;;14.88;4.53;;;;;;;5.06;100.00;100203.94;5005293;28;20042;-83
2023/12/22 04:05:42;;;;;;;13.68;4.10;;;;;;;5.08;100.00;100210.03;4985418;28;20030;-84
2023/12/22 04:08:07;;;;;;;12.60;4.35;;;;;;;5.09;100.00;100220.53;5006906;28;20065;-84
2023/12/22 04:10:33;;;;;;;13.75;4.00;;;;;;;5.11;100.00;100234.53;4987936;28;20018;-84
2023/12/22 04:12:58;;;;;;;17.17;4.05;;;;;;;5.18;100.00;100230.75;5000519;28;20028;-84
2023/12/22 04:15:23;;;;;;;15.30;4.70;;;;;;;5.08;100.00;100210.91;5002715;28;20042;-84
2023/12/22 04:17:49;;;;;;;17.10;4.32;;;;;;;5.14;100.00;100220.34;5001021;28;20025;-84
2023/12/22 04:20:15;;;;;;;20.42;4.90;;;;;;;5.29;100.00;100229.47;5009896;28;20041;-84
2023/12/22 04:22:40;;;;;;;19.20;3.83;;;;;;;5.41;100.00;100239.53;5006163;28;20037;-84
2023/12/22 04:25:06;;;;;;;15.45;4.03;;;;;;;5.43;100.00;100230.66;4999843;28;20065;-84
2023/12/22 04:27:31;;;;;;;16.73;4.50;;;;;;;5.53;100.00;100246.97;4990090;28;20514;-84
2023/12/22 04:29:57;;;;;;;14.85;4.00;;;;;;;5.53;100.00;100235.56;5001831;28;20036;-84
2023/12/22 04:32:22;;;;;;;16.83;3.90;;;;;;;5.60;100.00;100252.84;4991912;28;20046;-84
2023/12/22 04:34:47;;;;;;;13.13;4.22;;;;;;;5.62;100.00;100258.94;5020458;28;20033;-84
2023/12/22 04:37:13;;;;;;;21.90;5.63;;;;;;;5.66;100.00;100247.34;5023661;28;20136;-84
2023/12/22 04:39:38;;;;;;;14.85;4.05;;;;;;;5.68;100.00;100263.97;5007651;28;20061;-84
2023/12/22 04:42:03;;;;;;;17.60;4.63;;;;;;;5.68;100.00;100269.25;5022791;28;20033;-84
2023/12/22 04:44:29;;;;;;;17.70;4.72;;;;;;;5.73;100.00;100264.69;5026193;28;20029;-83
2023/12/22 04:46:57;;;;;;;19.27;4.53;;;;;;;5.73;100.00;100270.81;5019519;28;20115;-84
2023/12/22 04:49:23;;;;;;;14.05;4.90;;;;;;;5.75;100.00;100262.81;5022111;28;20045;-83
2023/12/22 04:51:48;;;;;;;26.90;4.80;;;;;;;5.68;100.00;100258.69;5020491;28;20037;-82
2023/12/22 04:54:13;;;;;;;16.02;4.35;;;;;;;5.71;100.00;100266.50;5022755;28;20205;-84
2023/12/22 04:56:39;;;;;;;14.57;4.47;;;;;;;5.59;100.00;100259.06;5024695;28;20041;-84
2023/12/22 04:59:04;;;;;;;16.45;3.78;;;;;;;5.50;100.00;100247.09;5029208;28;20069;-84
2023/12/22 05:01:29;;;;;;;13.20;3.97;;;;;;;5.62;100.00;100249.25;5012410;28;20048;-84
2023/12/22 05:03:56;;;;;;;17.38;4.88;;;;;;;5.57;100.00;100248.56;5011791;28;20025;-85
2023/12/22 05:06:21;;;;;;;14.63;3.90;;;;;;;5.74;100.00;100275.16;5029947;28;20029;-84
2023/12/22 05:08:46;;;;;;;18.50;4.28;;;;;;;5.69;100.00;100279.78;5030355;28;20059;-84
2023/12/22 05:11:12;;;;;;;11.00;3.92;;;;;;;5.61;100.00;100266.00;5020186;28;20496;-85
2023/12/22 05:13:38;;;;;;;18.00;4.30;;;;;;;5.75;100.00;100284.78;5029055;28;20037;-85
2023/12/22 05:16:04;;;;;;;15.82;4.63;;;;;;;5.79;100.00;100290.81;5024884;28;20439;-85
2023/12/22 05:18:29;;;;;;;12.55;3.95;;;;;;;5.80;100.00;100295.16;5024097;28;20045;-85
2023/12/22 05:20:55;;;;;;;18.23;5.30;;;;;;;5.75;100.00;100278.66;5028465;28;20175;-85
2023/12/22 05:23:21;;;;;;;12.38;4.53;;;;;;;5.88;100.00;100282.53;5030023;28;20550;-83
2023/12/22 05:25:46;;;;;;;15.85;4.45;;;;;;;5.77;100.00;100261.00;5008890;28;20374;-84
2023/12/22 05:28:11;;;;;;;19.77;4.80;;;;;;;5.60;100.00;100250.22;5023520;28;20049;-84
2023/12/22 05:30:37;;;;;;;22.73;5.43;;;;;;;5.51;100.00;100232.97;5007943;28;20037;-82
2023/12/22 05:33:02;;;;;;;16.98;5.28;;;;;;;5.43;100.00;100253.53;5016634;28;20141;-83
2023/12/22 05:35:27;;;;;;;28.52;6.35;;;;;;;5.61;100.00;100286.28;5036996;28;20503;-83
2023/12/22 05:37:53;;;;;;;19.27;6.32;;;;;;;5.62;100.00;100288.84;5034150;28;20483;-83
2023/12/22 05:40:18;;;;;;;19.27;5.60;;;;;;;5.64;100.00;100280.84;5032176;28;20049;-84
2023/12/22 05:42:44;;;;;;;18.85;5.85;;;;;;;5.65;100.00;100282.59;5010649;28;20273;-85
2023/12/22 05:45:11;;;;;;;19.27;5.55;;;;;;;5.67;100.00;100267.53;5032721;28;20032;-84
2023/12/22 05:47:36;;;;;;;18.75;5.55;;;;;;;5.64;100.00;100257.09;5028597;28;20041;-84
2023/12/22 05:50:02;;;;;;;20.73;4.90;;;;;;;5.40;100.00;100219.34;5024075;28;20437;-84
2023/12/22 05:52:28;;;;;;;21.40;6.15;;;;;;;5.69;100.00;100257.78;5013076;28;20050;-84
2023/12/22 05:54:54;;;;;;;21.00;6.10;;;;;;;5.65;100.00;100267.63;5042976;28;20031;-84
2023/12/22 05:57:19;;;;;;;26.60;7.15;;;;;;;5.62;100.00;100273.00;5028401;28;20117;-83
2023/12/22 05:59:45;;;;;;;27.30;7.13;;;;;;;5.63;100.00;100274.72;5015572;28;20128;-83
2023/12/22 06:02:10;;;;;;;28.48;7.38;;;;;;;5.66;100.00;100273.75;5016432;28;20038;-84
2023/12/22 06:04:35;;;;;;;27.23;6.68;;;;;;;5.63;100.00;100252.75;5044290;28;20037;-84
2023/12/22 06:07:01;;;;;;;28.35;8.35;;;;;;;5.55;100.00;100221.38;5025568;28;20495;-83
2023/12/22 06:09:26;;;;;;;27.08;7.43;;;;;;;5.70;100.00;100255.06;5041905;28;20037;-84
2023/12/22 06:11:51;;;;;;;25.92;6.90;;;;;;;5.69;100.00;100242.81;5026445;28;20060;-84
2023/12/22 06:14:17;;;;;;;29.35;7.25;;;;;;;5.55;100.00;100225.78;5034408;28;20467;-83
2023/12/22 06:16:42;;;;;;;33.50;7.72;;;;;;;5.66;100.00;100253.47;5036457;28;20123;-84
2023/12/22 06:19:08;;;;;;;26.33;7.63;;;;;;;5.60;100.00;100250.22;5015720;28;20033;-84
2023/12/22 06:21:33;;;;;;;36.17;7.93;;;;;;;5.65;100.00;100258.84;5029893;28;20036;-84
2023/12/22 06:23:58;;;;;;;25.27;6.90;;;;;;;5.63;100.00;100252.75;5038145;28;20685;-84
2023/12/22 06:26:24;;;;;;;28.63;7.50;;;;;;;5.61;100.00;100249.31;5027595;28;20107;-84
2023/12/22 06:28:49;;;;;;;38.13;8.80;;;;;;;5.62;100.00;100229.91;5026407;28;20108;-84
2023/12/22 06:31:19;;;;;;;31.58;8.52;;;;;;;5.79;100.00;100238.00;5033100;28;20037;-84
2023/12/22 06:33:45;;;;;;;28.73;7.60;;;;;;;5.77;100.00;100231.06;5004893;28;20502;-84
2023/12/22 06:36:24;;;;;;;29.88;7.95;;;;;;;5.90;100.00;100254.28;5008345;28;20029;-84
2023/12/22 06:38:51;;;;;;;29.38;7.53;;;;;;;5.91;100.00;100252.50;5011826;28;20049;-84
2023/12/22 06:41:37;;;;;;;24.90;8.05;;;;;;;6.01;100.00;100275.00;5030041;28;20038;-84
2023/12/22 06:44:03;;;;;;;33.38;7.88;;;;;;;5.98;100.00;100265.44;5030853;28;20061;-85
2023/12/22 06:46:30;;;;;;;27.17;8.10;;;;;;;6.12;100.00;100295.69;5020178;28;20071;-85
2023/12/22 06:48:56;;;;;;;30.05;7.53;;;;;;;6.05;100.00;100283.66;5014573;28;20025;-85
2023/12/22 06:51:27;;;;;;;28.55;7.93;;;;;;;6.18;100.00;100288.34;5017785;28;20042;-84
2023/12/22 06:53:54;;;;;;;36.75;8.40;;;;;;;5.99;100.00;100271.56;5039197;28;20025;-84
2023/12/22 06:56:23;;;;;;;35.50;9.60;;;;;;;5.95;100.00;100280.53;5043314;28;20036;-84
2023/12/22 06:58:50;;;;;;;36.58;9.05;;;;;;;5.85;100.00;100263.28;5016597;28;20034;-84
2023/12/22 07:01:28;;;;;;;36.72;9.07;;;;;;;5.74;100.00;100264.59;5025151;28;20589;-84
2023/12/22 07:03:54;;;;;;;40.50;9.90;;;;;;;5.90;100.00;100266.63;5020226;28;20148;-84
2023/12/22 07:06:21;;;;;;;30.60;7.75;;;;;;;5.63;100.00;100221.06;5025661;28;20109;-84
2023/12/22 07:09:11;;;;;;;32.80;9.75;;;;;;;5.94;100.00;100269.13;5027046;28;20112;-84
2023/12/22 07:12:03;;;;;;;34.88;8.85;;;;;;;6.09;100.00;100274.69;5027134;28;20104;-84
2023/12/22 07:14:29;;;;;;;40.65;9.73;;;;;;;6.06;100.00;100275.69;5017370;28;20067;-84
2023/12/22 07:16:57;;;;;;;40.97;8.85;;;;;;;6.15;100.00;100261.22;5022430;28;20503;-84
2023/12/22 07:19:23;;;;;;;32.75;7.75;;;;;;;6.22;100.00;100274.09;5010035;28;20034;-84
2023/12/22 07:21:49;;;;;;;31.25;8.23;;;;;;;6.10;100.00;100212.97;5015123;28;20357;-84
2023/12/22 07:24:15;;;;;;;33.63;9.43;;;;;;;6.34;100.00;100264.78;5011076;28;20064;-85
2023/12/22 07:26:41;;;;;;;31.88;7.95;;;;;;;6.33;100.00;100260.44;5014719;28;20076;-84
2023/12/22 07:29:06;;;;;;;29.83;7.93;;;;;;;6.39;100.00;100262.81;5016256;28;20064;-84
2023/12/22 07:31:31;;;;;;;29.13;8.35;;;;;;;6.35;100.00;100233.94;5021531;28;20072;-84
2023/12/22 07:33:57;;;;;;;27.10;7.57;;;;;;;6.39;100.00;100246.09;5028725;28;20080;-84
2023/12/22 07:36:22;;;;;;;32.30;8.23;;;;;;;6.52;100.00;100260.53;5027279;28;20076;-84
2023/12/22 07:38:47;;;;;;;28.20;8.00;;;;;;;6.45;100.00;100249.34;5008597;28;20112;-83
2023/12/22 07:41:13;;;;;;;25.75;7.70;;;;;;;6.42;100.00;100245.97;5017353;28;20029;-84
2023/12/22 07:43:38;;;;;;;31.38;8.20;;;;;;;6.60;100.00;100262.81;5027010;28;20059;-84
2023/12/22 07:46:03;;;;;;;24.90;7.35;;;;;;;6.60;100.00;100268.09;5027857;28;20044;-84
2023/12/22 07:48:29;;;;;;;33.03;7.85;;;;;;;6.63;100.00;100255.59;5025456;28;20384;-84
2023/12/22 07:50:57;;;;;;;29.42;7.57;;;;;;;6.63;100.00;100245.03;5008827;28;20084;-83
2023/12/22 07:53:23;;;;;;;25.92;7.47;;;;;;;6.59;100.00;100229.38;5012059;28;20033;-84
2023/12/22 07:55:48;;;;;;;26.00;7.47;;;;;;;6.66;100.00;100247.53;5033367;28;20396;-84
2023/12/22 07:58:13;;;;;;;31.63;8.15;;;;;;;6.61;100.00;100233.66;5028309;28;20365;-83
2023/12/22 08:00:39;;;;;;;27.35;7.95;;;;;;;6.66;100.00;100250.19;5029073;28;20033;-85
2023/12/22 08:03:05;;;;;;;22.77;7.00;;;;;;;6.67;100.00;100246.59;5036192;28;20037;-85
2023/12/22 08:05:30;;;;;;;27.05;7.45;;;;;;;6.81;100.00;100253.06;5015101;28;20537;-84
2023/12/22 08:07:56;;;;;;;24.48;7.18;;;;;;;6.82;100.00;100265.38;5024423;28;20492;-85
2023/12/22 08:10:21;;;;;;;30.45;7.53;;;;;;;6.88;100.00;100271.25;5009926;28;20104;-83
2023/12/22 08:12:47;;;;;;;26.70;6.57;;;;;;;6.87;100.00;100285.41;5026759;28;20041;-84
2023/12/22 08:15:12;;;;;;;23.27;6.90;;;;;;;6.80;100.00;100246.91;5021651;28;20033;-84
2023/12/22 08:17:46;;;;;;;24.98;6.22;;;;;;;6.91;100.00;100262.31;5018822;28;20048;-84
2023/12/22 08:20:16;;;;;;;24.75;6.43;;;;;;;6.69;100.00;100214.81;5025061;28;20064;-84
2023/12/22 08:22:41;;;;;;;20.60;6.28;;;;;;;6.94;100.00;100254.25;5029445;28;20025;-84
2023/12/22 08:25:08;;;;;;;19.08;5.40;;;;;;;6.99;100.00;100255.75;5024614;28;20025;-84
2023/12/22 08:27:33;;;;;;;25.52;6.07;;;;;;;6.97;100.00;100246.16;5028315;28;20038;-84
2023/12/22 08:29:58;;;;;;;19.65;5.55;;;;;;;7.04;100.00;100244.09;5011475;28;20767;-83
2023/12/22 08:32:24;;;;;;;21.83;5.82;;;;;;;7.10;100.00;100251.75;5037638;28;20647;-84
2023/12/22 08:34:49;;;;;;;17.33;5.38;;;;;;;7.15;100.00;100252.41;5034315;28;20037;-84
2023/12/22 08:37:14;;;;;;;23.10;8.35;;;;;;;7.09;100.00;100242.09;5044673;28;20067;-84
2023/12/22 08:39:40;;;;;;;15.02;4.90;;;;;;;7.14;100.00;100253.31;5051105;28;20041;-85
2023/12/22 08:42:05;;;;;;;14.98;4.43;;;;;;;7.20;100.00;100248.63;5035836;28;20033;-84
2023/12/22 08:44:30;;;;;;;28.00;9.25;;;;;;;7.18;100.00;100241.66;5042194;28;20034;-85
2023/12/22 08:46:56;;;;;;;15.20;5.05;;;;;;;7.21;100.00;100245.03;5040697;28;20056;-84
2023/12/22 08:49:21;;;;;;;15.13;4.63;;;;;;;7.16;100.00;100232.94;5034177;28;20073;-84
2023/12/22 08:51:46;;;;;;;14.48;4.40;;;;;;;7.10;100.00;100222.63;5040652;28;20088;-84
2023/12/22 08:54:12;;;;;;;11.98;3.88;;;;;;;7.12;100.00;100223.44;5020943;28;20048;-86
2023/12/22 08:56:37;;;;;;;17.15;4.18;;;;;;;7.15;100.00;100231.25;5028438;28;20037;-84
2023/12/22 08:59:03;;;;;;;11.23;3.80;;;;;;;7.18;100.00;100239.03;5026633;28;20039;-84
2023/12/22 09:01:28;;;;;;;13.88;3.80;;;;;;;7.23;100.00;100242.31;5019406;28;20053;-84
2023/12/22 09:03:53;;;;;;;12.18;3.58;;;;;;;7.13;100.00;100251.63;5021041;28;20038;-83
2023/12/22 09:06:21;;;;;;;13.13;4.05;;;;;;;6.97;100.00;100244.38;5025044;28;20040;-83
2023/12/22 09:08:47;;;;;;;10.32;3.75;;;;;;;6.91;100.00;100241.16;5024673;28;20040;-84
2023/12/22 09:11:15;;;;;;;11.00;3.78;;;;;;;6.88;100.00;100242.13;5023390;28;20703;-84
2023/12/22 09:13:41;;;;;;;11.07;4.07;;;;;;;6.84;100.00;100242.34;5032767;28;20037;-83
2023/12/22 09:16:07;;;;;;;11.60;4.05;;;;;;;6.88;100.00;100234.22;5042095;28;20053;-85
2023/12/22 09:18:33;;;;;;;6.63;3.20;;;;;;;6.90;100.00;100235.00;5036365;28;20080;-82
2023/12/22 09:20:59;;;;;;;12.43;3.67;;;;;;;6.77;100.00;100211.81;5029341;28;20104;-84
2023/12/22 09:23:24;;;;;;;13.43;3.70;;;;;;;6.91;100.00;100204.97;5040258;28;20056;-84
2023/12/22 09:25:49;;;;;;;8.15;2.83;;;;;;;7.10;100.00;100233.22;5021462;28;20048;-85
2023/12/22 09:28:15;;;;;;;7.93;2.90;;;;;;;7.20;100.00;100237.19;5028039;28;20224;-84
2023/12/22 09:30:41;;;;;;;11.30;3.22;;;;;;;7.19;100.00;100240.72;5018103;28;20539;-83
2023/12/22 09:33:07;;;;;;;9.55;3.45;;;;;;;7.16;100.00;100230.31;5017121;28;20515;-84
2023/12/22 09:35:36;;;;;;;7.25;2.67;;;;;;;7.24;100.00;100236.97;5013119;28;20042;-83
2023/12/22 09:38:02;;;;;;;6.25;2.45;;;;;;;7.33;100.00;100224.22;5025148;28;20520;-82
2023/12/22 09:40:28;;;;;;;6.70;2.58;;;;;;;7.29;100.00;100226.16;5024959;28;20044;-83
2023/12/22 09:42:58;;;;;;;7.30;3.00;;;;;;;7.39;100.00;100239.81;4998781;28;20040;-84
2023/12/22 09:45:27;;;;;;;7.03;2.80;;;;;;;7.35;100.00;100209.09;5026599;28;20101;-84
2023/12/22 09:47:56;;;;;;;6.32;2.50;;;;;;;7.38;100.00;100196.59;5035512;28;20057;-84
2023/12/22 09:50:23;;;;;;;6.45;2.50;;;;;;;7.50;100.00;100205.75;5023914;28;20049;-84
2023/12/22 09:52:48;;;;;;;7.72;2.38;;;;;;;7.67;100.00;100213.72;5025027;28;20042;-84
2023/12/22 09:55:14;;;;;;;7.60;2.65;;;;;;;7.74;100.00;100224.88;5017326;28;20049;-84
2023/12/22 09:57:41;;;;;;;7.95;2.70;;;;;;;7.78;100.00;100226.44;5029712;28;20059;-84
2023/12/22 10:00:10;;;;;;;7.40;2.70;;;;;;;7.79;100.00;100220.22;5029852;28;20097;-85
2023/12/22 10:02:37;;;;;;;4.53;2.30;;;;;;;7.82;100.00;100217.41;5027406;28;20099;-85
2023/12/22 10:05:03;;;;;;;5.15;2.38;;;;;;;7.81;100.00;100204.22;5027132;28;20084;-84
2023/12/22 10:07:30;;;;;;;5.53;2.22;;;;;;;7.87;100.00;100193.34;5002718;28;20190;-85
2023/12/22 10:09:56;;;;;;;7.07;2.95;;;;;;;7.98;100.00;100210.41;5019302;28;20042;-84
2023/12/22 10:12:25;;;;;;;8.77;2.67;;;;;;;8.11;100.00;100209.78;5011315;28;20041;-85
2023/12/22 10:14:51;;;;;;;6.50;2.58;;;;;;;8.21;100.00;100193.34;5044034;28;20484;-84
2023/12/22 10:17:17;;;;;;;4.63;2.03;;;;;;;8.26;100.00;100189.59;5032772;28;20044;-85
2023/12/22 10:19:43;;;;;;;3.80;2.10;;;;;;;8.41;100.00;100184.38;5024071;28;20025;-85
2023/12/22 10:22:08;;;;;;;7.35;2.47;;;;;;;8.35;100.00;100178.50;5002708;28;20090;-85
2023/12/22 10:24:46;;;;;;;5.80;2.40;;;;;;;8.55;100.00;100188.94;5019956;28;20038;-84
2023/12/22 10:27:14;;;;;;;7.35;2.20;;;;;;;8.55;100.00;100201.38;5018080;28;20033;-85
2023/12/22 10:29:40;;;;;;;6.78;2.00;;;;;;;8.60;100.00;100207.28;5032409;28;20042;-86
2023/12/22 10:32:07;;;;;;;4.82;1.80;;;;;;;8.50;100.00;100192.81;5015950;28;20559;-85
2023/12/22 10:34:33;;;;;;;4.88;2.08;;;;;;;8.58;100.00;100210.03;5021606;28;20037;-84
2023/12/22 10:36:59;;;;;;;3.50;2.00;;;;;;;8.57;100.00;100223.34;5013934;28;20044;-85
2023/12/22 10:39:31;;;;;;;4.18;1.92;;;;;;;8.50;100.00;100196.31;5031211;28;20502;-85
2023/12/22 10:42:00;;;;;;;5.53;1.88;;;;;;;8.59;100.00;100210.88;5031497;28;20034;-84
2023/12/22 10:44:29;;;;;;;5.93;2.30;;;;;;;8.52;100.00;100212.13;5029040;28;20040;-86
2023/12/22 10:46:58;;;;;;;6.03;2.10;;;;;;;8.54;100.00;100204.97;5025988;28;20033;-85
2023/12/22 10:49:25;;;;;;;4.43;2.13;;;;;;;8.55;100.00;100212.81;5019697;28;20041;-86
2023/12/22 10:51:51;;;;;;;3.88;2.00;;;;;;;8.44;100.00;100200.16;5007255;28;20033;-84
2023/12/22 10:54:18;;;;;;;5.38;2.33;;;;;;;8.58;100.00;100217.13;5021336;28;20706;-85
2023/12/22 10:56:43;;;;;;;4.50;1.90;;;;;;;8.60;100.00;100217.88;5021238;28;20040;-85
2023/12/22 10:59:09;;;;;;;5.75;2.05;;;;;;;8.58;100.00;100228.59;5015516;28;20108;-85
2023/12/22 11:01:39;;;;;;;7.72;2.17;;;;;;;8.45;100.00;100193.91;5013998;28;20061;-84
2023/12/22 11:04:07;;;;;;;5.78;2.00;;;;;;;8.66;100.00;100205.16;5026310;28;20053;-85
2023/12/22 11:06:37;;;;;;;6.97;2.45;;;;;;;8.73;100.00;100211.00;5022441;28;20060;-85
2023/12/22 11:09:07;;;;;;;7.28;2.00;;;;;;;8.77;100.00;100214.34;4997160;28;20046;-86
2023/12/22 11:11:42;;;;;;;9.23;2.20;;;;;;;8.72;100.00;100201.31;5038625;28;20120;-86
2023/12/22 11:14:07;;;;;;;6.90;2.28;;;;;;;8.86;100.00;100212.06;5025629;28;20034;-85
2023/12/22 11:16:34;;;;;;;5.80;1.90;;;;;;;8.83;100.00;100198.09;5012746;28;20045;-86